Time;durP1;ratioP1;P1;durP2;ratioP2;P2;SDS_P1;SDS_P2;PMS_P1;PMS_P2;Temp;Humidity;BMP_temperature;BMP_pressure;BME280_temperature;BME280_humidity;BME280_pressure;Samples;Min_cycle;Max_cycle;Signal;HPM_P1;HPM_P2
2022/01/03 00:00:44;;;;;;;6.25;2.10;;;10.10;92.50;;;;;;5036994;28;20060;-68
2022/01/03 00:03:11;;;;;;;;;;;10.10;92.10;;;;;;5036243;28;20029;-68
2022/01/03 00:05:37;;;;;;;5.85;2.08;;;10.10;92.10;;;;;;5036998;28;19948;-68
2022/01/03 00:08:05;;;;;;;8.60;1.70;;;10.10;92.20;;;;;;5037153;28;20033;-68
2022/01/03 00:10:33;;;;;;;7.13;2.47;;;10.10;92.30;;;;;;5035585;28;20488;-67
2022/01/03 00:13:00;;;;;;;5.32;1.85;;;10.10;92.20;;;;;;5031525;28;20029;-68
2022/01/03 00:15:26;;;;;;;6.85;2.10;;;10.10;92.10;;;;;;5036270;28;20480;-67
2022/01/03 00:17:53;;;;;;;6.53;1.80;;;10.10;92.10;;;;;;5035431;28;20033;-68
2022/01/03 00:20:20;;;;;;;5.50;1.80;;;10.20;91.70;;;;;;5036059;28;20051;-69
2022/01/03 00:23:00;;;;;;;9.15;2.10;;;10.20;91.30;;;;;;5031588;28;20128;-67
2022/01/03 00:25:27;;;;;;;7.50;2.50;;;10.30;91.20;;;;;;5030258;28;20087;-68
2022/01/03 00:28:14;;;;;;;5.75;1.83;;;10.30;90.90;;;;;;5033721;28;20112;-67
2022/01/03 00:30:42;;;;;;;6.45;1.77;;;10.30;90.60;;;;;;5032483;28;20025;-67
2022/01/03 00:33:10;;;;;;;9.15;1.98;;;10.30;90.60;;;;;;5025613;28;20060;-68
2022/01/03 00:35:40;;;;;;;6.65;2.03;;;10.30;90.70;;;;;;5036461;28;20117;-68
2022/01/03 00:38:10;;;;;;;6.15;1.80;;;10.20;90.70;;;;;;5036909;28;20091;-67
2022/01/03 00:40:37;;;;;;;10.30;2.08;;;10.20;90.80;;;;;;5036437;28;20108;-67
2022/01/03 00:43:04;;;;;;;4.30;1.70;;;10.20;90.80;;;;;;5036326;28;20037;-68
2022/01/03 00:45:30;;;;;;;7.75;1.80;;;10.30;90.00;;;;;;5034392;28;20021;-66
2022/01/03 00:47:56;;;;;;;10.95;2.03;;;10.40;89.80;;;;;;5022683;28;20021;-68
2022/01/03 00:50:22;;;;;;;6.18;1.52;;;10.40;89.80;;;;;;5028754;28;20484;-68
2022/01/03 00:52:49;;;;;;;9.80;2.05;;;10.40;89.50;;;;;;5022329;28;20346;-67
2022/01/03 00:55:15;;;;;;;6.97;2.15;;;10.30;89.80;;;;;;5029385;28;20064;-69
2022/01/03 00:57:53;;;;;;;6.13;1.70;;;10.30;89.90;;;;;;5035251;28;20052;-68
2022/01/03 01:00:19;;;;;;;9.00;2.10;;;10.30;89.70;;;;;;5035913;28;20029;-68
2022/01/03 01:03:12;;;;;;;9.18;2.10;;;10.30;89.70;;;;;;5034628;28;20041;-68
2022/01/03 01:05:43;;;;;;;9.38;2.67;;;10.20;89.60;;;;;;5035340;28;20095;-68
2022/01/03 01:08:10;;;;;;;7.80;1.67;;;10.20;89.90;;;;;;5034411;28;20057;-68
2022/01/03 01:10:41;;;;;;;7.63;2.20;;;10.20;89.90;;;;;;5035597;28;20025;-68
2022/01/03 01:13:12;;;;;;;6.78;1.80;;;10.20;89.60;;;;;;5034543;28;20033;-68
2022/01/03 01:15:37;;;;;;;5.07;1.83;;;10.20;89.80;;;;;;5035633;28;20026;-69
2022/01/03 01:18:04;;;;;;;6.82;2.20;;;10.10;89.70;;;;;;5032794;28;20041;-68
2022/01/03 01:20:32;;;;;;;6.22;1.67;;;10.20;89.60;;;;;;5033392;28;20087;-68
2022/01/03 01:22:58;;;;;;;3.90;1.50;;;10.20;89.40;;;;;;5035090;28;20025;-68
2022/01/03 01:27:45;;;;;;;6.68;1.80;;;10.30;89.40;;;;;;5033127;28;20314;-68
2022/01/03 01:28:12;;;;;;;6.35;1.70;;;10.30;89.20;;;;;;5034892;28;20434;-69
2022/01/03 01:30:41;;;;;;;5.80;1.50;;;10.30;88.90;;;;;;5035659;28;20017;-68
2022/01/03 01:33:16;;;;;;;6.00;1.52;;;10.30;89.10;;;;;;5032959;28;20509;-68
2022/01/03 01:35:50;;;;;;;6.75;1.80;;;10.30;89.30;;;;;;5017329;28;20128;-67
2022/01/03 01:38:19;;;;;;;7.68;1.63;;;10.30;89.30;;;;;;5034545;28;20034;-67
2022/01/03 01:40:56;;;;;;;7.28;2.13;;;10.30;89.00;;;;;;5017953;28;20060;-67
2022/01/03 01:43:57;;;;;;;8.07;1.95;;;10.40;89.00;;;;;;5034629;28;20040;-67
2022/01/03 01:46:24;;;;;;;6.25;1.55;;;10.40;88.90;;;;;;5034469;28;20451;-69
2022/01/03 01:48:52;;;;;;;4.47;1.50;;;10.40;89.00;;;;;;5033508;28;20017;-68
2022/01/03 01:51:20;;;;;;;5.97;1.73;;;10.30;89.10;;;;;;5029589;28;20036;-68
2022/01/03 01:53:52;;;;;;;8.68;1.70;;;10.30;89.30;;;;;;5018599;28;20148;-69
2022/01/03 01:56:22;;;;;;;4.97;1.80;;;10.30;89.30;;;;;;5033883;28;20485;-68
2022/01/03 01:59:13;;;;;;;6.65;1.60;;;10.30;89.50;;;;;;5028221;28;20103;-68
2022/01/03 02:01:44;;;;;;;5.15;1.73;;;10.30;89.70;;;;;;5028763;28;20033;-68
2022/01/03 02:04:28;;;;;;;10.57;1.75;;;10.30;89.90;;;;;;5033375;28;20456;-68
2022/01/03 02:06:56;;;;;;;9.95;1.77;;;10.30;90.10;;;;;;5034582;28;20044;-67
2022/01/03 02:09:42;;;;;;;4.80;1.60;;;10.30;90.10;;;;;;5035007;28;20030;-68
2022/01/03 02:12:16;;;;;;;4.97;1.50;;;10.30;89.80;;;;;;5035738;28;20018;-68
2022/01/03 02:14:44;;;;;;;7.28;1.60;;;10.30;90.00;;;;;;5032998;28;20032;-67
2022/01/03 02:17:11;;;;;;;6.50;1.90;;;10.30;90.20;;;;;;5032950;28;20039;-68
2022/01/03 02:19:38;;;;;;;5.32;1.63;;;10.30;90.70;;;;;;5034647;28;20037;-68
2022/01/03 02:22:04;;;;;;;7.80;1.80;;;10.20;91.10;;;;;;5017934;28;20322;-68
2022/01/03 02:24:30;;;;;;;5.65;1.80;;;10.20;91.40;;;;;;5026366;28;20319;-68
2022/01/03 02:26:56;;;;;;;6.95;1.75;;;10.20;91.30;;;;;;5034297;28;20053;-68
2022/01/03 02:29:22;;;;;;;6.35;2.05;;;10.20;91.30;;;;;;5034800;28;20033;-68
2022/01/03 02:31:48;;;;;;;7.57;1.83;;;10.10;91.10;;;;;;5034570;28;20096;-68
2022/01/03 02:34:13;;;;;;;8.30;2.17;;;10.20;91.00;;;;;;5033985;28;20041;-68
2022/01/03 02:36:43;;;;;;;7.15;1.95;;;10.20;91.10;;;;;;5034570;28;20548;-69
2022/01/03 02:39:09;;;;;;;7.85;1.88;;;10.20;90.90;;;;;;5035267;28;20026;-69
2022/01/03 02:41:35;;;;;;;8.23;2.28;;;10.20;91.20;;;;;;5035377;28;20022;-68
2022/01/03 02:44:01;;;;;;;5.35;1.85;;;10.10;90.70;;;;;;5035348;28;20029;-68
2022/01/03 02:46:27;;;;;;;8.70;2.20;;;10.20;90.30;;;;;;5034742;28;20025;-68
2022/01/03 02:48:53;;;;;;;6.88;2.00;;;10.20;90.50;;;;;;5033753;28;20010;-68
2022/01/03 02:51:18;;;;;;;6.40;1.80;;;10.20;90.20;;;;;;5037791;28;20314;-68
2022/01/03 02:53:44;;;;;;;7.47;1.63;;;10.20;90.80;;;;;;5039066;28;20057;-68
2022/01/03 02:56:10;;;;;;;5.28;1.50;;;10.20;90.90;;;;;;5038896;28;20426;-70
2022/01/03 02:58:36;;;;;;;6.43;1.85;;;10.10;90.80;;;;;;5038772;28;20108;-69
2022/01/03 03:01:01;;;;;;;6.63;2.00;;;10.10;91.20;;;;;;5037985;28;20627;-69
2022/01/03 03:03:27;;;;;;;7.50;2.22;;;10.10;91.20;;;;;;5032502;28;20033;-68
2022/01/03 03:05:53;;;;;;;8.50;2.42;;;10.10;91.20;;;;;;5026308;28;20032;-68
2022/01/03 03:08:19;;;;;;;6.63;2.08;;;10.00;91.50;;;;;;5038228;28;20026;-70
2022/01/03 03:10:45;;;;;;;6.03;1.77;;;10.00;91.90;;;;;;5038042;28;20026;-68
2022/01/03 03:13:11;;;;;;;8.82;2.08;;;9.90;91.60;;;;;;5038821;28;20030;-68
2022/01/03 03:15:37;;;;;;;8.30;2.20;;;9.90;92.10;;;;;;5020107;28;20402;-68
2022/01/03 03:18:03;;;;;;;6.30;2.20;;;9.90;91.80;;;;;;5037220;28;20437;-68
2022/01/03 03:20:31;;;;;;;7.18;1.70;;;9.90;91.80;;;;;;5038385;28;20053;-68
2022/01/03 03:22:59;;;;;;;8.70;2.95;;;9.80;91.80;;;;;;5038458;28;20026;-69
2022/01/03 03:25:30;;;;;;;11.02;2.00;;;9.80;92.10;;;;;;5037316;28;20036;-68
2022/01/03 03:28:08;;;;;;;8.68;2.60;;;9.70;92.20;;;;;;5038206;28;20021;-68
2022/01/03 03:30:37;;;;;;;7.13;1.98;;;9.70;92.00;;;;;;5037512;28;20083;-68
2022/01/03 03:33:17;;;;;;;6.07;1.98;;;9.70;92.10;;;;;;5037055;28;20034;-68
2022/01/03 03:35:44;;;;;;;7.57;1.90;;;9.70;91.80;;;;;;5023044;28;20108;-69
2022/01/03 03:38:13;;;;;;;5.78;2.13;;;9.70;91.80;;;;;;5038259;28;20022;-68
2022/01/03 03:40:39;;;;;;;8.05;2.35;;;9.70;91.70;;;;;;5037515;28;20119;-68
2022/01/03 03:43:05;;;;;;;8.77;2.13;;;9.60;91.80;;;;;;5037264;28;20034;-68
2022/01/03 03:45:34;;;;;;;8.50;2.38;;;9.60;92.00;;;;;;5036792;28;20112;-68
2022/01/03 03:47:59;;;;;;;6.78;1.92;;;9.60;92.20;;;;;;5035324;28;20108;-68
2022/01/03 03:50:25;;;;;;;8.73;2.08;;;9.50;92.50;;;;;;5036755;28;20430;-69
2022/01/03 03:52:51;;;;;;;6.95;1.92;;;9.50;92.50;;;;;;5038111;28;20021;-68
2022/01/03 03:55:17;;;;;;;8.02;2.78;;;9.50;92.40;;;;;;5037514;28;20311;-68
2022/01/03 03:57:43;;;;;;;6.57;1.90;;;9.50;92.40;;;;;;5037906;28;20410;-68
2022/01/03 04:00:15;;;;;;;8.38;2.08;;;9.40;92.70;;;;;;5037350;28;20108;-69
2022/01/03 04:02:41;;;;;;;6.32;1.95;;;9.30;93.00;;;;;;5034935;28;20076;-68
2022/01/03 04:05:07;;;;;;;8.52;2.47;;;9.20;92.80;;;;;;5036934;28;20036;-68
2022/01/03 04:07:33;;;;;;;8.60;2.28;;;9.30;92.30;;;;;;5037904;28;20345;-68
2022/01/03 04:09:59;;;;;;;8.43;1.73;;;9.30;92.00;;;;;;5037350;28;20021;-69
2022/01/03 04:12:24;;;;;;;7.45;2.20;;;9.30;91.80;;;;;;5036996;28;20410;-69
2022/01/03 04:14:50;;;;;;;13.65;2.58;;;9.30;91.50;;;;;;5036475;28;20064;-68
2022/01/03 04:17:16;;;;;;;7.15;2.60;;;9.40;91.00;;;;;;5021919;28;20049;-69
2022/01/03 04:19:42;;;;;;;9.77;2.40;;;9.30;90.90;;;;;;5037134;28;20050;-69
2022/01/03 04:22:08;;;;;;;9.98;2.35;;;9.30;90.90;;;;;;5037404;28;20025;-68
2022/01/03 04:24:33;;;;;;;9.57;2.22;;;9.40;90.30;;;;;;5019258;28;20116;-69
2022/01/03 04:27:00;;;;;;;7.68;2.08;;;9.40;90.30;;;;;;5035875;28;20436;-69
2022/01/03 04:29:26;;;;;;;11.40;1.92;;;9.40;90.20;;;;;;5037164;28;20029;-68
2022/01/03 04:31:52;;;;;;;9.15;2.55;;;9.40;90.10;;;;;;5029760;28;20029;-68
2022/01/03 04:34:18;;;;;;;5.90;1.70;;;9.40;89.80;;;;;;5036895;28;20116;-68
2022/01/03 04:36:44;;;;;;;9.80;2.10;;;9.40;89.60;;;;;;5032262;28;20108;-68
2022/01/03 04:39:10;;;;;;;5.85;1.65;;;9.50;88.90;;;;;;5037229;28;20025;-69
2022/01/03 04:41:35;;;;;;;8.65;1.95;;;9.50;88.80;;;;;;5032224;28;20025;-69
2022/01/03 04:44:05;;;;;;;8.85;2.03;;;9.40;89.10;;;;;;5023336;28;20061;-69
2022/01/03 04:46:32;;;;;;;10.38;2.10;;;9.40;89.30;;;;;;5036390;28;20029;-69
2022/01/03 04:48:58;;;;;;;5.80;1.42;;;9.30;89.40;;;;;;5019631;28;20419;-69
2022/01/03 04:51:23;;;;;;;8.70;1.90;;;9.20;89.60;;;;;;5031918;28;20045;-69
2022/01/03 04:53:52;;;;;;;8.07;1.63;;;9.10;90.00;;;;;;5036592;28;20033;-69
2022/01/03 04:56:18;;;;;;;8.07;2.25;;;9.00;90.40;;;;;;5036258;28;20087;-69
2022/01/03 04:58:43;;;;;;;11.63;1.90;;;9.00;90.30;;;;;;5036594;28;20418;-69
2022/01/03 05:01:10;;;;;;;8.38;1.75;;;9.10;90.00;;;;;;5035135;28;20330;-69
2022/01/03 05:03:36;;;;;;;5.07;1.60;;;9.20;89.80;;;;;;5034939;28;20406;-68
2022/01/03 05:06:02;;;;;;;8.70;2.72;;;9.10;90.00;;;;;;5036186;28;20030;-69
2022/01/03 05:08:29;;;;;;;8.32;1.88;;;9.00;90.40;;;;;;5028270;28;20116;-69
2022/01/03 05:10:56;;;;;;;10.75;2.22;;;8.90;90.60;;;;;;5036316;28;20099;-69
2022/01/03 05:13:22;;;;;;;7.38;2.15;;;8.90;90.70;;;;;;5036077;28;20041;-69
2022/01/03 05:15:47;;;;;;;7.03;2.05;;;8.90;90.80;;;;;;5036451;28;20430;-69
2022/01/03 05:18:13;;;;;;;8.95;1.90;;;8.90;90.90;;;;;;5035362;28;20032;-69
2022/01/03 05:20:42;;;;;;;13.00;2.58;;;8.80;91.20;;;;;;5036387;28;20049;-68
2022/01/03 05:23:08;;;;;;;9.57;2.17;;;8.80;91.60;;;;;;5035718;28;20026;-69
2022/01/03 05:25:34;;;;;;;13.18;2.25;;;8.70;91.90;;;;;;5036446;28;20034;-69
2022/01/03 05:27:59;;;;;;;8.48;2.22;;;8.80;91.80;;;;;;5036228;28;20131;-69
2022/01/03 05:30:25;;;;;;;7.53;1.77;;;8.80;91.60;;;;;;5036263;28;20026;-69
2022/01/03 05:32:51;;;;;;;11.73;2.75;;;8.80;92.00;;;;;;5034938;28;20413;-69
2022/01/03 05:35:16;;;;;;;9.65;2.10;;;8.70;92.30;;;;;;5036008;28;20030;-69
2022/01/03 05:37:42;;;;;;;6.75;1.77;;;8.70;92.30;;;;;;5035534;28;20474;-68
2022/01/03 05:40:08;;;;;;;6.70;1.98;;;8.70;92.10;;;;;;5036006;28;20430;-69
2022/01/03 05:42:34;;;;;;;9.15;2.45;;;8.70;92.40;;;;;;5035826;28;20076;-69
2022/01/03 05:44:59;;;;;;;9.70;1.95;;;8.60;92.60;;;;;;5035876;28;20318;-69
2022/01/03 05:47:25;;;;;;;7.97;2.28;;;8.60;92.80;;;;;;5017357;28;20021;-69
2022/01/03 05:49:53;;;;;;;28.98;12.60;;;8.60;92.80;;;;;;5036230;28;20322;-69
2022/01/03 05:52:18;;;;;;;11.65;2.72;;;8.50;93.10;;;;;;5035797;28;20111;-69
2022/01/03 05:54:44;;;;;;;8.40;1.92;;;8.40;93.40;;;;;;5035583;28;20434;-69
2022/01/03 05:57:10;;;;;;;9.93;2.22;;;8.30;93.50;;;;;;5036073;28;20036;-69
2022/01/03 05:59:35;;;;;;;8.60;1.98;;;8.20;93.80;;;;;;5035576;28;20032;-69
2022/01/03 06:02:03;;;;;;;13.10;2.63;;;8.20;94.00;;;;;;5034620;28;20041;-69
2022/01/03 06:05:04;;;;;;;13.43;2.72;;;8.10;94.10;;;;;;5035461;28;20025;-69
2022/01/03 06:07:21;;;;;;;8.77;2.65;;;8.20;93.80;;;;;;5023122;28;20037;-68
2022/01/03 06:09:48;;;;;;;10.93;2.15;;;8.20;93.60;;;;;;5035744;28;20027;-69
2022/01/03 06:12:14;;;;;;;9.98;1.90;;;8.20;93.60;;;;;;5035903;28;20083;-68
2022/01/03 06:14:40;;;;;;;9.65;2.33;;;8.20;93.70;;;;;;5035292;28;20032;-68
2022/01/03 06:17:06;;;;;;;7.20;2.00;;;8.20;93.60;;;;;;5034621;28;20805;-68
2022/01/03 06:19:33;;;;;;;10.15;2.80;;;8.20;93.80;;;;;;5035561;28;20089;-68
2022/01/03 06:22:00;;;;;;;8.00;2.42;;;8.20;93.80;;;;;;5035535;28;20034;-68
2022/01/03 06:24:26;;;;;;;9.88;2.30;;;8.10;94.00;;;;;;5015598;28;20040;-69
2022/01/03 06:26:52;;;;;;;8.00;2.42;;;8.00;94.20;;;;;;5019323;28;20334;-69
2022/01/03 06:29:21;;;;;;;8.63;1.80;;;8.00;94.50;;;;;;5032064;28;20033;-69
2022/01/03 06:31:50;;;;;;;8.32;2.22;;;7.90;94.70;;;;;;5038019;28;20083;-68
2022/01/03 06:34:17;;;;;;;12.05;2.58;;;8.00;94.60;;;;;;5039065;28;20438;-69
2022/01/03 06:36:43;;;;;;;7.93;2.60;;;8.00;94.50;;;;;;5021549;28;20029;-69
2022/01/03 06:39:11;;;;;;;8.23;2.33;;;8.00;94.60;;;;;;5038477;28;20029;-69
2022/01/03 06:41:41;;;;;;;8.00;2.28;;;8.00;94.60;;;;;;5039300;28;20029;-68
2022/01/03 06:44:06;;;;;;;10.45;2.47;;;8.00;94.70;;;;;;5038849;28;20477;-69
2022/01/03 06:46:33;;;;;;;10.90;3.10;;;8.00;94.70;;;;;;5038820;28;20040;-69
2022/01/03 06:49:05;;;;;;;11.35;2.60;;;7.90;94.80;;;;;;5037252;28;20100;-69
2022/01/03 06:51:34;;;;;;;13.80;2.97;;;8.00;94.80;;;;;;5038353;28;20021;-69
2022/01/03 06:54:03;;;;;;;11.00;3.50;;;8.00;94.80;;;;;;5038217;28;20045;-69
2022/01/03 06:56:31;;;;;;;11.45;2.20;;;8.10;94.60;;;;;;5039390;28;20366;-69
2022/01/03 06:58:57;;;;;;;11.50;2.28;;;8.10;94.60;;;;;;5038663;28;20047;-68
2022/01/03 07:01:23;;;;;;;9.43;2.45;;;8.10;94.70;;;;;;5036724;28;20037;-68
2022/01/03 07:03:48;;;;;;;9.43;2.10;;;8.10;94.70;;;;;;5037573;28;20041;-69
2022/01/03 07:06:14;;;;;;;8.30;2.17;;;8.10;94.80;;;;;;5038057;28;20033;-69
2022/01/03 07:08:40;;;;;;;7.97;2.20;;;8.10;94.80;;;;;;5038914;28;20302;-69
2022/01/03 07:11:05;;;;;;;7.80;2.00;;;8.00;95.00;;;;;;5038868;28;20029;-69
2022/01/03 07:13:40;;;;;;;7.47;2.45;;;8.00;95.00;;;;;;5038399;28;20116;-69
2022/01/03 07:18:56;;;;;;;9.00;2.28;;;8.10;94.80;;;;;;5028380;28;20088;-69
2022/01/03 07:21:29;;;;;;;12.07;2.45;;;8.10;94.70;;;;;;5037455;28;20068;-68
2022/01/03 07:23:56;;;;;;;11.63;2.70;;;8.20;94.40;;;;;;5034923;28;20105;-68
2022/01/03 07:26:22;;;;;;;8.18;2.58;;;8.30;93.90;;;;;;5035212;28;20337;-68
2022/01/03 07:28:48;;;;;;;11.45;2.53;;;8.30;93.70;;;;;;5035681;28;20025;-68
2022/01/03 07:31:14;;;;;;;8.98;2.10;;;8.40;93.50;;;;;;5035607;28;20049;-68
2022/01/03 07:33:39;;;;;;;8.73;1.85;;;8.40;93.40;;;;;;5019381;28;20410;-70
2022/01/03 07:36:06;;;;;;;11.15;1.98;;;8.50;93.10;;;;;;5033096;28;20026;-69
2022/01/03 07:38:32;;;;;;;8.13;2.22;;;8.60;92.60;;;;;;5036446;28;20026;-69
2022/01/03 07:40:59;;;;;;;9.85;2.13;;;8.60;92.60;;;;;;5036486;28;20087;-68
2022/01/03 07:43:24;;;;;;;10.23;2.05;;;8.60;92.50;;;;;;5037911;28;20032;-68
2022/01/03 07:45:50;;;;;;;11.48;2.20;;;8.80;92.00;;;;;;5036873;28;20025;-69
2022/01/03 07:48:19;;;;;;;10.85;2.97;;;8.80;91.60;;;;;;5036302;28;20021;-70
2022/01/03 07:50:44;;;;;;;13.85;2.17;;;8.90;91.50;;;;;;5037411;28;20033;-69
2022/01/03 07:53:10;;;;;;;7.25;2.00;;;8.90;91.40;;;;;;5036434;28;20033;-69
2022/01/03 07:55:35;;;;;;;8.75;2.17;;;8.90;91.30;;;;;;5037501;28;20048;-69
2022/01/03 07:58:03;;;;;;;8.20;1.90;;;9.10;90.50;;;;;;5034090;28;20048;-69
2022/01/03 08:00:29;;;;;;;7.70;2.20;;;9.20;90.30;;;;;;5036913;28;20021;-69
2022/01/03 08:02:55;;;;;;;10.45;1.83;;;9.20;90.00;;;;;;5036193;28;20033;-69
2022/01/03 08:05:21;;;;;;;9.27;1.98;;;9.20;89.50;;;;;;5037634;28;20361;-68
2022/01/03 08:07:46;;;;;;;8.05;1.83;;;9.20;89.70;;;;;;5036225;28;20028;-69
2022/01/03 08:10:13;;;;;;;6.70;2.13;;;9.20;89.00;;;;;;5031363;28;20080;-69
2022/01/03 08:12:39;;;;;;;6.55;2.10;;;9.30;89.10;;;;;;5035279;28;20026;-69
2022/01/03 08:15:07;;;;;;;8.85;1.90;;;9.30;88.60;;;;;;5037273;28;20481;-68
2022/01/03 08:17:35;;;;;;;11.80;2.08;;;9.30;88.50;;;;;;5035862;28;20330;-69
2022/01/03 08:20:04;;;;;;;9.15;1.77;;;9.40;88.50;;;;;;5021646;28;20111;-69
2022/01/03 08:22:29;;;;;;;9.68;1.77;;;9.40;88.60;;;;;;5036908;28;20018;-69
2022/01/03 08:24:55;;;;;;;10.73;2.10;;;9.40;88.80;;;;;;5037296;28;20080;-69
2022/01/03 08:27:21;;;;;;;6.70;1.90;;;9.40;88.70;;;;;;5036835;28;20025;-69
2022/01/03 08:29:46;;;;;;;5.55;1.70;;;9.40;88.80;;;;;;5035711;28;20017;-69
2022/01/03 08:32:12;;;;;;;9.27;3.03;;;9.30;88.90;;;;;;5035418;28;20033;-69
2022/01/03 08:34:38;;;;;;;10.75;1.85;;;9.40;89.00;;;;;;5037059;28;20026;-69
2022/01/03 08:37:05;;;;;;;7.65;2.28;;;9.40;88.90;;;;;;5036730;28;20033;-69
2022/01/03 08:39:30;;;;;;;8.73;2.75;;;9.40;88.80;;;;;;5028424;28;20045;-69
2022/01/03 08:41:56;;;;;;;10.52;1.90;;;9.40;88.80;;;;;;5036476;28;20033;-69
2022/01/03 08:44:23;;;;;;;8.18;2.20;;;9.50;88.50;;;;;;5037050;28;20029;-69
2022/01/03 08:46:50;;;;;;;10.23;2.08;;;9.50;88.30;;;;;;5035337;28;20033;-68
2022/01/03 08:49:16;;;;;;;5.88;1.80;;;9.60;88.20;;;;;;5019036;28;20434;-69
2022/01/03 08:51:42;;;;;;;6.72;1.98;;;9.60;88.30;;;;;;5036057;28;20104;-69
2022/01/03 08:54:08;;;;;;;7.88;1.92;;;9.60;88.20;;;;;;5036529;28;20032;-69
2022/01/03 08:56:33;;;;;;;8.52;1.80;;;9.60;88.20;;;;;;5035822;28;20017;-69
2022/01/03 08:58:59;;;;;;;11.07;2.00;;;9.60;88.20;;;;;;5035984;28;20029;-69
2022/01/03 09:01:24;;;;;;;10.30;2.85;;;9.60;88.20;;;;;;5035627;28;20033;-69
2022/01/03 09:03:50;;;;;;;9.55;1.98;;;9.60;88.20;;;;;;5034874;28;20034;-69
2022/01/03 09:06:17;;;;;;;10.15;1.77;;;9.70;88.20;;;;;;5036203;28;20029;-69
2022/01/03 09:08:44;;;;;;;7.40;2.05;;;9.70;88.10;;;;;;5036480;28;20434;-69
2022/01/03 09:11:09;;;;;;;10.55;2.53;;;9.80;88.00;;;;;;5034762;28;20414;-69
2022/01/03 09:13:36;;;;;;;5.70;1.60;;;9.80;87.70;;;;;;5018598;28;20033;-69
2022/01/03 09:16:06;;;;;;;6.03;1.70;;;9.90;87.40;;;;;;5036352;28;20033;-69
2022/01/03 09:18:33;;;;;;;12.57;2.63;;;9.90;87.60;;;;;;5034917;28;20041;-69
2022/01/03 09:20:59;;;;;;;11.32;2.67;;;10.00;87.60;;;;;;5034614;28;20046;-69
2022/01/03 09:23:29;;;;;;;6.93;1.92;;;10.00;87.80;;;;;;5035334;28;20036;-69
2022/01/03 09:28:52;;;;;;;7.75;2.70;;;9.90;87.70;;;;;;5034730;28;20052;-68
2022/01/03 09:31:30;;;;;;;9.85;2.63;;;9.90;87.80;;;;;;5033632;28;20071;-68
2022/01/03 09:33:57;;;;;;;10.18;2.88;;;9.90;87.90;;;;;;5032615;28;20079;-69
2022/01/03 09:36:25;;;;;;;11.60;2.40;;;10.00;87.80;;;;;;5035000;28;20349;-69
2022/01/03 09:38:51;;;;;;;7.47;2.70;;;10.00;87.80;;;;;;5035325;28;20063;-69
2022/01/03 09:41:22;;;;;;;8.40;2.65;;;10.00;87.90;;;;;;5034710;28;20386;-69
2022/01/03 09:43:54;;;;;;;6.55;2.40;;;10.00;88.30;;;;;;5017622;28;20434;-68
2022/01/03 09:46:27;;;;;;;6.78;2.10;;;10.00;88.00;;;;;;5032962;28;20022;-69
2022/01/03 09:48:54;;;;;;;7.60;2.13;;;10.00;88.30;;;;;;5034642;28;20025;-69
2022/01/03 09:51:27;;;;;;;9.73;2.13;;;10.00;88.50;;;;;;5035250;28;20021;-69
2022/01/03 09:53:55;;;;;;;10.90;2.80;;;10.10;88.30;;;;;;5035568;28;20030;-69
2022/01/03 09:56:22;;;;;;;9.30;2.10;;;10.00;88.30;;;;;;5034861;28;20342;-69
2022/01/03 09:58:50;;;;;;;9.50;2.22;;;10.00;88.40;;;;;;5034867;28;20031;-68
2022/01/03 10:01:16;;;;;;;6.38;2.25;;;10.10;88.50;;;;;;5032464;28;20040;-69
2022/01/03 10:03:47;;;;;;;11.68;2.95;;;10.10;88.70;;;;;;5033063;28;20033;-69
2022/01/03 10:06:15;;;;;;;8.15;2.20;;;10.10;88.70;;;;;;5035113;28;20422;-69
2022/01/03 10:08:41;;;;;;;8.02;3.20;;;10.00;89.00;;;;;;5035462;28;20033;-69
2022/01/03 10:11:07;;;;;;;6.85;1.63;;;10.00;89.30;;;;;;5034698;28;20101;-69
2022/01/03 10:13:33;;;;;;;7.35;1.90;;;10.10;89.20;;;;;;5032152;28;20120;-69
2022/01/03 10:15:59;;;;;;;10.18;2.30;;;10.10;89.00;;;;;;5034521;28;20060;-68
2022/01/03 10:18:26;;;;;;;7.38;1.65;;;10.10;89.20;;;;;;5033978;28;20033;-67
2022/01/03 10:20:52;;;;;;;9.70;2.65;;;10.10;89.00;;;;;;5035242;28;20037;-67
2022/01/03 10:23:19;;;;;;;8.63;2.78;;;10.10;89.20;;;;;;5034881;28;20047;-68
2022/01/03 10:25:49;;;;;;;11.25;2.58;;;10.10;89.20;;;;;;5035485;28;20068;-67
2022/01/03 10:28:26;;;;;;;7.95;2.25;;;10.20;89.00;;;;;;5034083;28;20414;-69
2022/01/03 10:30:56;;;;;;;6.30;2.45;;;10.20;88.90;;;;;;5033450;28;20026;-69
2022/01/03 10:33:23;;;;;;;7.90;2.13;;;10.20;89.10;;;;;;5034417;28;20034;-68
2022/01/03 10:35:52;;;;;;;10.38;2.60;;;10.20;89.00;;;;;;5035179;28;20025;-68
2022/01/03 10:38:36;;;;;;;12.65;2.30;;;10.20;89.20;;;;;;5018509;28;20133;-69
2022/01/03 10:41:14;;;;;;;15.40;4.50;;;10.30;88.90;;;;;;4998435;28;20497;-68
2022/01/03 10:43:45;;;;;;;9.20;2.28;;;10.30;88.80;;;;;;5025511;28;20052;-69
2022/01/03 10:46:23;;;;;;;13.05;3.15;;;10.30;89.00;;;;;;5028081;28;20103;-69
2022/01/03 10:48:50;;;;;;;7.47;2.10;;;10.30;88.60;;;;;;5033550;28;20311;-68
2022/01/03 10:51:25;;;;;;;10.30;2.40;;;10.40;88.80;;;;;;5034745;28;20107;-69
2022/01/03 10:53:53;;;;;;;;;;;10.40;88.20;;;;;;5035050;28;20032;-69
2022/01/03 10:56:28;;;;;;;9.48;2.10;;;10.50;88.30;;;;;;5021847;28;20306;-68
2022/01/03 10:59:14;;;;;;;7.78;1.80;;;10.50;87.50;;;;;;5033665;28;20029;-68
2022/01/03 11:01:41;;;;;;;5.63;1.88;;;10.50;87.60;;;;;;5026966;28;20075;-68
2022/01/03 11:04:07;;;;;;;8.23;2.90;;;10.50;87.10;;;;;;5033283;28;20370;-69
2022/01/03 11:11:49;;;;;;;10.02;3.25;;;10.70;86.80;;;;;;5033844;28;20024;-68
2022/01/03 11:14:41;;;;;;;10.60;2.05;;;10.80;86.90;;;;;;5038086;28;20034;-69
2022/01/03 11:17:24;;;;;;;10.07;2.10;;;10.70;86.70;;;;;;5036519;28;20025;-69
2022/01/03 11:19:50;;;;;;;7.77;2.10;;;10.70;86.90;;;;;;5038138;28;20120;-69
2022/01/03 11:22:37;;;;;;;9.77;2.25;;;10.70;86.50;;;;;;5037879;28;20038;-69
2022/01/03 11:25:05;;;;;;;6.95;2.33;;;10.70;86.30;;;;;;5037568;28;20025;-69
2022/01/03 11:27:31;;;;;;;10.40;2.97;;;10.80;86.40;;;;;;5038026;28;20032;-68
2022/01/03 11:29:58;;;;;;;7.75;2.05;;;10.90;85.70;;;;;;5038060;28;20021;-69
2022/01/03 11:32:27;;;;;;;8.15;2.45;;;10.80;85.30;;;;;;5036445;28;20030;-68
2022/01/03 11:34:53;;;;;;;8.20;1.80;;;10.90;85.20;;;;;;5037339;28;20417;-69
2022/01/03 11:37:19;;;;;;;8.95;2.13;;;10.90;85.00;;;;;;5037725;28;20029;-69
2022/01/03 11:39:48;;;;;;;13.10;2.40;;;10.80;85.00;;;;;;5037101;28;20033;-68
2022/01/03 11:42:14;;;;;;;8.98;1.85;;;10.80;84.90;;;;;;5034121;28;20040;-68
2022/01/03 11:44:40;;;;;;;9.68;1.85;;;10.80;84.70;;;;;;5036900;28;20029;-69
2022/01/03 11:47:08;;;;;;;7.00;1.88;;;10.70;84.80;;;;;;5033027;28;20026;-69
2022/01/03 11:49:36;;;;;;;6.88;1.80;;;10.70;84.80;;;;;;5029129;28;20465;-69
2022/01/03 11:52:08;;;;;;;9.13;2.15;;;10.60;84.70;;;;;;5037707;28;20331;-69
2022/01/03 11:54:34;;;;;;;8.57;2.30;;;10.70;85.20;;;;;;5037265;28;20033;-68
2022/01/03 11:57:12;;;;;;;7.57;1.52;;;10.70;84.40;;;;;;5037470;28;20108;-68
2022/01/03 12:03:37;;;;;;;8.35;2.28;;;10.70;84.00;;;;;;5037161;28;20048;-69
2022/01/03 12:05:20;;;;;;;6.93;1.70;;;10.80;84.00;;;;;;5008710;28;20037;-68
2022/01/03 12:07:56;;;;;;;7.93;2.17;;;10.80;83.70;;;;;;5018203;28;20048;-69
2022/01/03 12:10:22;;;;;;;7.22;1.85;;;10.70;83.10;;;;;;5037202;28;20095;-68
2022/01/03 12:12:57;;;;;;;7.38;2.20;;;10.70;83.40;;;;;;5036753;28;20033;-69
2022/01/03 12:15:39;;;;;;;6.65;2.42;;;10.70;83.60;;;;;;5036475;28;20022;-69
2022/01/03 12:18:24;;;;;;;5.75;1.98;;;10.80;83.20;;;;;;5035985;28;20029;-69
2022/01/03 12:20:50;;;;;;;5.85;1.70;;;10.80;82.80;;;;;;5036427;28;20057;-68
2022/01/03 12:23:37;;;;;;;8.88;2.05;;;10.70;83.00;;;;;;5035504;28;20021;-69
2022/01/03 12:26:17;;;;;;;8.18;1.85;;;10.70;83.00;;;;;;5021846;28;20047;-69
2022/01/03 12:29:07;;;;;;;7.15;2.10;;;10.70;83.70;;;;;;5036808;28;20377;-68
2022/01/03 12:32:06;;;;;;;5.20;1.30;;;10.80;83.20;;;;;;5037048;28;20097;-69
2022/01/03 12:34:32;;;;;;;6.03;1.65;;;10.70;83.10;;;;;;4983069;28;20036;-69
2022/01/03 12:37:17;;;;;;;5.85;1.55;;;10.70;82.70;;;;;;5036949;28;20022;-69
2022/01/03 12:40:05;;;;;;;7.95;2.03;;;10.80;82.80;;;;;;5036119;28;20314;-68
2022/01/03 12:42:46;;;;;;;8.48;1.88;;;10.80;82.80;;;;;;5036458;28;20021;-69
2022/01/03 12:45:13;;;;;;;6.40;1.80;;;10.90;83.00;;;;;;5036069;28;20036;-69
2022/01/03 12:47:39;;;;;;;7.65;2.67;;;10.90;83.00;;;;;;5035384;28;20096;-68
2022/01/03 12:50:27;;;;;;;9.13;2.10;;;10.90;83.30;;;;;;5035717;28;20029;-68
2022/01/03 12:52:54;;;;;;;6.97;1.90;;;10.90;82.90;;;;;;5036533;28;20096;-68
2022/01/03 12:55:38;;;;;;;6.95;2.33;;;10.80;83.40;;;;;;5035302;28;20437;-68
2022/01/03 12:58:16;;;;;;;6.63;1.55;;;10.70;83.30;;;;;;5011944;28;20029;-69
2022/01/03 13:00:48;;;;;;;4.90;1.58;;;10.70;83.30;;;;;;5018395;28;20025;-68
2022/01/03 13:03:19;;;;;;;8.25;1.63;;;10.80;83.60;;;;;;5034647;28;20033;-68
2022/01/03 13:06:07;;;;;;;8.32;1.90;;;10.90;83.20;;;;;;5036206;28;20104;-68
2022/01/03 13:08:48;;;;;;;7.05;2.30;;;10.90;82.80;;;;;;5035697;28;20040;-68
2022/01/03 13:11:25;;;;;;;5.32;1.45;;;10.90;82.90;;;;;;5017345;28;20449;-67
2022/01/03 13:13:54;;;;;;;4.93;1.48;;;10.90;82.00;;;;;;5031449;28;20055;-67